Time;durP1;ratioP1;P1;durP2;ratioP2;P2;SDS_P1;SDS_P2;PMS_P1;PMS_P2;Temp;Humidity;BMP_temperature;BMP_pressure;BME280_temperature;BME280_humidity;BME280_pressure;Samples;Min_cycle;Max_cycle;Signal;HPM_P1;HPM_P2
2023/05/12 00:00:09;;;;;;;1.90;1.67;;;;;;;11.45;98.26;97579.13;5112147;28;20028;-78
2023/05/12 00:02:35;;;;;;;3.22;1.80;;;;;;;11.41;96.84;97574.94;5094161;28;20027;-78
2023/05/12 00:05:00;;;;;;;1.80;1.35;;;;;;;11.40;95.72;97574.09;5094911;28;20027;-78
2023/05/12 00:07:26;;;;;;;3.30;1.70;;;;;;;11.36;95.89;97577.91;5095052;28;20152;-78
2023/05/12 00:09:51;;;;;;;3.25;2.10;;;;;;;11.33;95.30;97578.13;5111535;28;20022;-78
2023/05/12 00:12:17;;;;;;;1.75;1.50;;;;;;;11.37;94.20;97584.13;5111737;28;20019;-78
2023/05/12 00:14:43;;;;;;;2.78;1.95;;;;;;;11.37;93.96;97566.25;5094866;28;20024;-78
2023/05/12 00:17:08;;;;;;;4.90;1.75;;;;;;;11.33;94.37;97572.75;5094404;28;20115;-78
2023/05/12 00:19:35;;;;;;;7.30;2.22;;;;;;;11.34;93.84;97579.84;5094696;28;20059;-78
2023/05/12 00:22:01;;;;;;;2.63;1.70;;;;;;;11.34;93.72;97593.22;5111707;28;20510;-78
2023/05/12 00:24:27;;;;;;;3.38;1.88;;;;;;;11.35;92.81;97568.16;5094455;28;20032;-79
2023/05/12 00:26:53;;;;;;;5.53;1.92;;;;;;;11.34;93.63;97578.97;5094380;28;20077;-78
2023/05/12 00:29:18;;;;;;;2.47;1.67;;;;;;;11.27;93.36;97567.78;5094445;28;20050;-79
2023/05/12 00:31:44;;;;;;;2.42;1.90;;;;;;;11.31;92.49;97574.69;5111176;28;20043;-79
2023/05/12 00:34:09;;;;;;;4.53;2.15;;;;;;;11.32;91.71;97580.91;5094107;28;20449;-78
2023/05/12 00:36:35;;;;;;;2.13;1.35;;;;;;;11.27;91.52;97557.09;5094278;28;20101;-79
2023/05/12 00:39:01;;;;;;;3.60;2.33;;;;;;;11.16;91.45;97562.28;5111370;28;20487;-79
2023/05/12 00:41:27;;;;;;;2.10;1.90;;;;;;;11.18;91.50;97584.44;5110877;28;20082;-79
2023/05/12 00:43:52;;;;;;;2.55;1.38;;;;;;;11.16;89.61;97569.44;5111206;28;20513;-78
2023/05/12 00:46:18;;;;;;;3.17;1.20;;;;;;;11.22;89.44;97580.63;5093891;28;20475;-78
2023/05/12 00:48:44;;;;;;;3.05;2.03;;;;;;;11.18;89.61;97580.91;5111440;28;20399;-78
2023/05/12 00:51:11;;;;;;;3.60;1.88;;;;;;;11.14;89.40;97576.69;5093972;28;20023;-78
2023/05/12 00:53:36;;;;;;;2.28;1.38;;;;;;;11.12;88.86;97573.28;5111014;28;20023;-79
2023/05/12 00:56:02;;;;;;;3.42;1.70;;;;;;;11.15;87.44;97581.97;5110971;28;20042;-78
2023/05/12 00:58:28;;;;;;;3.13;2.17;;;;;;;11.14;87.57;97574.03;5093537;28;20388;-78
2023/05/12 01:00:54;;;;;;;2.45;1.85;;;;;;;11.06;87.10;97547.75;5111020;28;20030;-80
2023/05/12 01:03:19;;;;;;;2.65;1.60;;;;;;;11.10;86.39;97569.84;5093605;28;20028;-78
2023/05/12 01:05:53;;;;;;;4.60;2.00;;;;;;;11.14;86.02;97572.22;5110824;28;20031;-78
2023/05/12 01:08:19;;;;;;;3.38;1.60;;;;;;;11.09;85.64;97568.97;5110623;28;20086;-79
2023/05/12 01:10:45;;;;;;;3.75;1.90;;;;;;;11.03;85.63;97563.16;5110834;28;20033;-78
2023/05/12 01:13:11;;;;;;;3.70;1.50;;;;;;;11.02;85.57;97556.06;5093343;28;20011;-79
2023/05/12 01:15:39;;;;;;;1.63;1.42;;;;;;;10.99;85.90;97561.63;5110307;28;20028;-79
2023/05/12 01:18:06;;;;;;;1.83;1.55;;;;;;;11.00;86.04;97561.53;5110534;28;20045;-79
2023/05/12 01:20:31;;;;;;;2.55;1.60;;;;;;;10.99;85.40;97562.47;5094120;28;20019;-78
2023/05/12 01:22:57;;;;;;;3.88;1.50;;;;;;;10.93;85.54;97543.28;5094267;28;20061;-78
2023/05/12 01:25:23;;;;;;;2.22;1.85;;;;;;;10.86;86.05;97556.16;5093163;28;20042;-77
2023/05/12 01:27:49;;;;;;;2.38;1.10;;;;;;;10.93;86.08;97545.94;5094716;28;20023;-77
2023/05/12 01:30:17;;;;;;;2.92;1.70;;;;;;;10.80;86.46;97553.88;5110665;28;20508;-78
2023/05/12 01:32:43;;;;;;;2.33;1.52;;;;;;;10.78;86.60;97553.13;5110046;28;20138;-77
2023/05/12 01:35:08;;;;;;;2.60;1.33;;;;;;;10.82;87.26;97566.22;5111459;28;20152;-78
2023/05/12 01:37:34;;;;;;;3.50;1.63;;;;;;;10.69;88.32;97554.56;5110286;28;20508;-81
2023/05/12 01:40:00;;;;;;;1.30;0.95;;;;;;;10.70;88.54;97561.66;5093428;28;20030;-77
2023/05/12 01:42:25;;;;;;;2.80;1.52;;;;;;;10.71;90.07;97573.19;5092985;28;20050;-77
2023/05/12 01:44:51;;;;;;;1.88;1.55;;;;;;;10.58;91.85;97569.56;5110130;28;20023;-78
2023/05/12 01:47:16;;;;;;;2.90;1.70;;;;;;;10.56;93.27;97585.69;5111690;28;20032;-78
2023/05/12 01:49:41;;;;;;;1.90;1.25;;;;;;;10.52;94.39;97588.66;5110051;28;20114;-78
2023/05/12 01:52:07;;;;;;;8.45;1.48;;;;;;;10.48;94.46;97592.47;5109755;28;20536;-78
2023/05/12 01:54:33;;;;;;;1.90;1.55;;;;;;;10.42;96.13;97599.06;5109738;28;20031;-78
2023/05/12 01:56:58;;;;;;;3.17;1.40;;;;;;;10.40;94.98;97592.94;5109904;28;20058;-78
2023/05/12 01:59:24;;;;;;;3.40;1.88;;;;;;;10.40;95.47;97594.75;5092859;28;20027;-78
2023/05/12 02:01:49;;;;;;;2.28;1.50;;;;;;;10.43;94.77;97591.91;5109929;28;20148;-78
2023/05/12 02:04:15;;;;;;;1.05;0.95;;;;;;;10.45;93.60;97592.66;5092855;28;20499;-78
2023/05/12 02:06:40;;;;;;;5.93;1.67;;;;;;;10.46;93.97;97591.72;5109853;28;20123;-78
2023/05/12 02:09:06;;;;;;;8.15;1.45;;;;;;;10.47;94.14;97583.59;5109912;28;20046;-78
2023/05/12 02:11:31;;;;;;;2.20;1.30;;;;;;;10.41;96.37;97604.50;5109820;28;20032;-78
2023/05/12 02:13:57;;;;;;;3.10;1.30;;;;;;;10.21;100.00;97606.53;5092816;28;20024;-78
2023/05/12 02:16:23;;;;;;;5.55;2.08;;;;;;;10.07;100.00;97616.28;5092826;28;20122;-78
2023/05/12 02:18:48;;;;;;;3.30;1.70;;;;;;;9.80;100.00;97618.78;5109581;28;20057;-78
2023/05/12 02:21:14;;;;;;;1.52;1.13;;;;;;;9.73;100.00;97636.09;5109926;28;20026;-78
2023/05/12 02:23:39;;;;;;;1.90;1.50;;;;;;;9.65;100.00;97636.53;5109304;28;20028;-78
2023/05/12 02:26:05;;;;;;;2.83;1.83;;;;;;;9.58;100.00;97640.50;5114038;28;20403;-78
2023/05/12 02:28:30;;;;;;;2.92;1.80;;;;;;;9.59;100.00;97649.38;5113861;28;20030;-78
2023/05/12 02:30:56;;;;;;;4.05;1.50;;;;;;;9.59;100.00;97657.38;5113573;28;20475;-78
2023/05/12 02:33:25;;;;;;;1.95;1.25;;;;;;;9.62;100.00;97660.75;5113644;28;20043;-78
2023/05/12 02:35:51;;;;;;;3.20;1.70;;;;;;;9.51;100.00;97663.16;5113549;28;20042;-78
2023/05/12 02:38:16;;;;;;;2.90;2.00;;;;;;;9.47;100.00;97676.78;5096454;28;20024;-77
2023/05/12 02:40:42;;;;;;;2.55;2.00;;;;;;;9.41;100.00;97671.78;5113241;28;20035;-78
2023/05/12 02:43:07;;;;;;;2.33;1.80;;;;;;;9.36;100.00;97673.81;5096252;28;20050;-77
2023/05/12 02:45:33;;;;;;;4.22;1.88;;;;;;;9.23;100.00;97670.94;5113630;28;20495;-77
2023/05/12 02:47:59;;;;;;;3.28;2.30;;;;;;;9.18;100.00;97692.56;5113129;28;20037;-77
2023/05/12 02:50:25;;;;;;;3.50;1.90;;;;;;;9.05;100.00;97688.81;5096217;28;20031;-77
2023/05/12 02:52:50;;;;;;;3.47;2.30;;;;;;;9.01;100.00;97705.94;5114063;28;20440;-77
2023/05/12 02:55:16;;;;;;;1.95;1.38;;;;;;;8.95;100.00;97684.91;5113129;28;20065;-77
2023/05/12 02:57:42;;;;;;;1.98;1.35;;;;;;;8.96;100.00;97713.31;5096053;28;20023;-78
2023/05/12 03:00:09;;;;;;;3.28;1.77;;;;;;;8.91;100.00;97694.03;5112774;28;20024;-77
2023/05/12 03:02:37;;;;;;;2.55;1.35;;;;;;;8.84;100.00;97708.63;5112917;28;20114;-77
2023/05/12 03:05:03;;;;;;;9.80;1.83;;;;;;;8.80;100.00;97706.22;5096083;28;20494;-78
2023/05/12 03:07:28;;;;;;;4.60;1.90;;;;;;;8.73;100.00;97703.00;5112676;28;20038;-78
2023/05/12 03:09:54;;;;;;;3.53;1.70;;;;;;;8.64;100.00;97701.66;5114322;28;20443;-78
2023/05/12 03:12:20;;;;;;;3.72;2.00;;;;;;;8.53;100.00;97703.16;5095752;28;20492;-78
2023/05/12 03:14:45;;;;;;;3.00;2.13;;;;;;;8.47;100.00;97715.00;5095981;28;20391;-79
2023/05/12 03:17:11;;;;;;;3.47;2.30;;;;;;;8.39;100.00;97700.34;5095803;28;20016;-79
2023/05/12 03:19:37;;;;;;;5.78;2.90;;;;;;;8.38;100.00;97706.63;5095956;28;20043;-79
2023/05/12 03:22:02;;;;;;;7.80;2.38;;;;;;;8.38;100.00;97711.94;5095222;28;20027;-79
2023/05/12 03:24:28;;;;;;;3.40;2.17;;;;;;;8.33;100.00;97708.66;5112741;28;20071;-78
2023/05/12 03:26:54;;;;;;;0.40;0.20;;;;;;;8.37;100.00;97712.88;5112762;28;20019;-79
2023/05/12 03:29:20;;;;;;;0.63;0.57;;;;;;;8.41;100.00;97706.47;5112426;28;20515;-79
2023/05/12 03:31:46;;;;;;;1.23;0.77;;;;;;;8.45;100.00;97713.38;5112890;28;20396;-79
2023/05/12 03:34:11;;;;;;;1.05;0.55;;;;;;;8.49;100.00;97713.13;5112725;28;20027;-78
2023/05/12 03:36:37;;;;;;;2.00;0.73;;;;;;;8.40;100.00;97720.75;5111079;28;20035;-78
2023/05/12 03:39:03;;;;;;;0.20;0.20;;;;;;;8.45;100.00;97732.03;5113005;28;20030;-78
2023/05/12 03:41:28;;;;;;;0.40;0.40;;;;;;;8.50;100.00;97732.66;5095415;28;20019;-78
2023/05/12 03:43:54;;;;;;;0.20;0.20;;;;;;;8.52;100.00;97746.78;5112328;28;20042;-78
2023/05/12 03:46:19;;;;;;;1.08;0.55;;;;;;;8.51;100.00;97737.91;5094707;28;20112;-78
2023/05/12 03:48:45;;;;;;;0.47;0.47;;;;;;;8.49;100.00;97744.28;5095430;28;20407;-78
2023/05/12 03:51:11;;;;;;;0.43;0.43;;;;;;;8.52;100.00;97760.94;5094998;28;20110;-77
2023/05/12 03:53:38;;;;;;;0.70;0.70;;;;;;;8.48;100.00;97740.75;5112446;28;20511;-78
2023/05/12 03:56:04;;;;;;;0.17;0.17;;;;;;;8.59;100.00;97750.84;5112148;28;20035;-78
2023/05/12 03:58:30;;;;;;;0.30;0.30;;;;;;;8.57;100.00;97752.72;5112514;28;20031;-78
2023/05/12 04:00:56;;;;;;;0.50;0.50;;;;;;;8.55;100.00;97755.47;5112406;28;20106;-78
2023/05/12 04:03:21;;;;;;;0.28;0.28;;;;;;;8.53;100.00;97762.69;5095072;28;20032;-79
2023/05/12 04:05:47;;;;;;;0.85;0.65;;;;;;;8.53;100.00;97767.16;5111919;28;20146;-79
2023/05/12 04:08:12;;;;;;;0.77;0.45;;;;;;;8.50;100.00;97778.84;5110669;27;20519;-79
2023/05/12 04:10:41;;;;;;;0.30;0.30;;;;;;;8.43;100.00;97780.06;5092681;28;20040;-78
2023/05/12 04:13:09;;;;;;;0.82;0.47;;;;;;;8.44;100.00;97788.94;5092736;28;20028;-78
2023/05/12 04:15:35;;;;;;;0.43;0.43;;;;;;;8.49;100.00;97802.91;5092422;28;20038;-77
2023/05/12 04:18:04;;;;;;;0.40;0.30;;;;;;;8.48;100.00;97799.38;5092471;28;20023;-79
2023/05/12 04:20:29;;;;;;;0.10;0.10;;;;;;;8.47;100.00;97802.97;5092212;28;20398;-78
2023/05/12 04:22:55;;;;;;;1.75;1.02;;;;;;;8.46;100.00;97811.06;5109211;28;20028;-78
2023/05/12 04:25:21;;;;;;;1.15;0.52;;;;;;;8.47;100.00;97805.66;5093096;28;20104;-78
2023/05/12 04:27:46;;;;;;;0.98;0.52;;;;;;;8.46;100.00;97803.06;5108952;28;20616;-79
2023/05/12 04:30:12;;;;;;;0.75;0.75;;;;;;;8.40;100.00;97814.03;5092252;28;20032;-79
2023/05/12 04:32:37;;;;;;;0.75;0.75;;;;;;;8.48;100.00;97827.84;5091853;28;20047;-79
2023/05/12 04:35:04;;;;;;;0.75;0.75;;;;;;;8.47;100.00;97826.09;5108999;28;20023;-79
2023/05/12 04:37:29;;;;;;;0.15;0.15;;;;;;;8.42;100.00;97817.47;5107481;28;20019;-78
2023/05/12 04:39:55;;;;;;;0.55;0.55;;;;;;;8.49;100.00;97813.59;5109474;28;20183;-80
2023/05/12 04:42:20;;;;;;;2.95;1.30;;;;;;;8.57;100.00;97816.72;5093315;28;20118;-79
2023/05/12 04:44:46;;;;;;;0.45;0.45;;;;;;;8.54;100.00;97792.88;5094670;28;20490;-79
2023/05/12 04:47:11;;;;;;;1.10;0.73;;;;;;;8.59;100.00;97788.16;5110902;28;20016;-80
2023/05/12 04:49:37;;;;;;;0.17;0.17;;;;;;;8.59;100.00;97772.16;5111214;28;20770;-80
2023/05/12 04:52:04;;;;;;;1.30;0.50;;;;;;;8.63;100.00;97779.09;5094910;28;20120;-80
2023/05/12 04:54:31;;;;;;;0.63;0.63;;;;;;;8.67;100.00;97784.16;5111395;28;20066;-80
2023/05/12 04:56:56;;;;;;;0.35;0.35;;;;;;;8.80;100.00;97800.41;5111892;28;20023;-80
2023/05/12 04:59:22;;;;;;;0.22;0.22;;;;;;;8.86;100.00;97792.09;5094262;28;20034;-81
2023/05/12 05:01:47;;;;;;;0.77;0.75;;;;;;;8.95;100.00;97786.28;5094356;28;20035;-81
2023/05/12 05:04:13;;;;;;;8.88;3.85;;;;;;;8.98;100.00;97783.47;5094468;28;20103;-80
2023/05/12 05:06:38;;;;;;;9.02;4.38;;;;;;;9.06;100.00;97783.94;5110990;28;20027;-80
2023/05/12 05:09:04;;;;;;;6.93;4.15;;;;;;;9.19;100.00;97795.72;5112678;28;20513;-79
2023/05/12 05:11:29;;;;;;;6.55;3.05;;;;;;;9.27;100.00;97787.28;5112322;28;20016;-78
2023/05/12 05:13:55;;;;;;;7.05;3.75;;;;;;;9.39;100.00;97789.31;5094197;28;20024;-79
2023/05/12 05:16:20;;;;;;;6.10;4.13;;;;;;;9.53;100.00;97809.94;5094039;28;20022;-79
2023/05/12 05:18:46;;;;;;;9.18;4.35;;;;;;;9.57;100.00;97814.16;5110916;28;20030;-78
2023/05/12 05:21:13;;;;;;;7.30;4.07;;;;;;;9.78;100.00;97819.19;5090968;28;20055;-78
2023/05/12 05:23:39;;;;;;;8.90;4.50;;;;;;;9.80;100.00;97814.66;5100972;28;20077;-80
2023/05/12 05:26:05;;;;;;;11.55;4.95;;;;;;;9.92;100.00;97812.25;5111209;28;20467;-79
2023/05/12 05:28:31;;;;;;;17.23;8.05;;;;;;;10.11;100.00;97816.50;5111078;28;20103;-80
2023/05/12 05:30:56;;;;;;;7.38;4.57;;;;;;;10.22;100.00;97805.22;5110862;28;20524;-80
2023/05/12 05:33:22;;;;;;;6.18;4.28;;;;;;;10.44;100.00;97794.16;5110879;28;20420;-80
2023/05/12 05:35:48;;;;;;;6.82;4.10;;;;;;;10.57;100.00;97773.78;5093597;28;20038;-80
2023/05/12 05:38:13;;;;;;;10.82;4.95;;;;;;;10.70;100.00;97773.00;5110764;28;20039;-81
2023/05/12 05:40:39;;;;;;;20.40;10.05;;;;;;;10.85;100.00;97780.13;5093644;28;20108;-78
2023/05/12 05:43:05;;;;;;;9.93;5.40;;;;;;;10.92;100.00;97777.91;5110808;28;20103;-79
2023/05/12 05:45:30;;;;;;;6.75;3.78;;;;;;;10.97;100.00;97783.88;5110893;28;20031;-81
2023/05/12 05:47:56;;;;;;;5.43;3.42;;;;;;;10.94;100.00;97751.94;5093872;28;20030;-80
2023/05/12 05:50:21;;;;;;;10.32;5.13;;;;;;;10.86;100.00;97764.91;5112076;28;20035;-80
2023/05/12 05:52:47;;;;;;;11.13;5.78;;;;;;;10.96;100.00;97771.44;5110860;28;20031;-80
2023/05/12 05:55:13;;;;;;;9.25;5.43;;;;;;;10.92;100.00;97759.16;5093928;28;20019;-82
2023/05/12 05:57:38;;;;;;;8.35;4.63;;;;;;;10.89;100.00;97746.84;5094436;28;20069;-79
2023/05/12 06:00:06;;;;;;;9.45;4.28;;;;;;;10.95;100.00;97760.84;5110234;28;20023;-80
2023/05/12 06:02:32;;;;;;;6.63;3.25;;;;;;;10.81;100.00;97741.09;5110689;28;20440;-81
2023/05/12 06:04:59;;;;;;;4.70;3.22;;;;;;;10.84;100.00;97751.63;5110494;28;20030;-79
2023/05/12 06:07:25;;;;;;;6.07;2.90;;;;;;;10.68;100.00;97749.94;5110386;28;20016;-81
2023/05/12 06:09:55;;;;;;;8.50;4.25;;;;;;;10.69;100.00;97749.84;5093091;28;20493;-80
2023/05/12 06:12:20;;;;;;;6.13;3.47;;;;;;;10.85;100.00;97763.19;5093628;28;20106;-80
2023/05/12 06:14:46;;;;;;;6.95;4.10;;;;;;;10.93;100.00;97760.03;5110119;28;20062;-79
2023/05/12 06:17:11;;;;;;;5.68;3.40;;;;;;;10.98;100.00;97780.25;5111375;28;20020;-80
2023/05/12 06:19:37;;;;;;;5.00;3.08;;;;;;;10.98;100.00;97774.03;5110497;28;20027;-81
2023/05/12 06:22:03;;;;;;;6.93;3.22;;;;;;;11.01;100.00;97760.47;5110509;28;20020;-80
2023/05/12 06:24:28;;;;;;;32.20;17.40;;;;;;;11.15;100.00;97769.38;5110537;28;20019;-80
2023/05/12 06:26:55;;;;;;;7.32;4.30;;;;;;;11.27;100.00;97779.34;5111321;28;20391;-80
2023/05/12 06:29:21;;;;;;;9.00;3.97;;;;;;;11.38;100.00;97795.59;5111370;28;20034;-81
2023/05/12 06:31:46;;;;;;;7.75;4.50;;;;;;;11.40;100.00;97809.78;5090610;28;20414;-81
2023/05/12 06:34:12;;;;;;;6.03;3.63;;;;;;;11.46;100.00;97813.88;5103378;28;20024;-81
2023/05/12 06:36:38;;;;;;;68.38;33.63;;;;;;;11.65;100.00;97819.84;5111205;28;20031;-82
2023/05/12 06:39:04;;;;;;;16.80;4.50;;;;;;;11.74;100.00;97805.03;5110382;28;20023;-81
2023/05/12 06:41:30;;;;;;;17.23;5.15;;;;;;;11.61;100.00;97804.91;5093564;28;20460;-82
2023/05/12 06:43:56;;;;;;;11.52;4.75;;;;;;;11.65;100.00;97802.91;5110990;28;20402;-81
2023/05/12 06:46:21;;;;;;;13.05;5.30;;;;;;;11.53;100.00;97809.03;5111594;28;20035;-81
2023/05/12 06:48:47;;;;;;;10.93;4.68;;;;;;;11.48;100.00;97803.06;5111646;28;20122;-80
2023/05/12 06:51:13;;;;;;;10.57;5.95;;;;;;;11.61;100.00;97820.13;5111529;28;20475;-80
2023/05/12 06:53:41;;;;;;;10.65;5.15;;;;;;;11.82;100.00;97810.78;5110630;28;20043;-78
2023/05/12 06:56:07;;;;;;;8.27;4.60;;;;;;;12.13;100.00;97815.06;5110034;28;20043;-80
2023/05/12 06:58:33;;;;;;;7.85;4.50;;;;;;;12.27;100.00;97812.38;5093461;28;20531;-80
2023/05/12 07:00:59;;;;;;;13.77;4.50;;;;;;;12.44;100.00;97807.63;5093112;28;20407;-81
2023/05/12 07:03:25;;;;;;;7.47;4.10;;;;;;;12.50;100.00;97799.19;5110105;28;20122;-79
2023/05/12 07:05:50;;;;;;;7.82;5.65;;;;;;;12.64;100.00;97790.22;5111746;28;20020;-80
2023/05/12 07:08:16;;;;;;;20.92;12.05;;;;;;;12.71;100.00;97793.34;5111732;28;20499;-80
2023/05/12 07:10:42;;;;;;;75.70;38.45;;;;;;;12.83;100.00;97789.84;5111318;28;20408;-82
2023/05/12 07:13:07;;;;;;;9.65;5.72;;;;;;;12.71;100.00;97796.88;5115857;28;20027;-80
2023/05/12 07:15:33;;;;;;;7.07;4.68;;;;;;;12.81;100.00;97798.00;5113960;28;20153;-80
2023/05/12 07:17:59;;;;;;;17.20;6.40;;;;;;;12.79;100.00;97799.06;5096869;28;20030;-80
2023/05/12 07:20:24;;;;;;;10.43;5.97;;;;;;;12.99;100.00;97801.28;5113625;28;20031;-81
2023/05/12 07:22:51;;;;;;;9.50;4.88;;;;;;;13.03;100.00;97797.41;5113528;28;20027;-82
2023/05/12 07:25:17;;;;;;;10.93;7.15;;;;;;;13.11;100.00;97783.50;5114305;28;20027;-81
2023/05/12 07:27:43;;;;;;;9.27;3.80;;;;;;;13.05;100.00;97784.75;5113551;28;20050;-80
2023/05/12 07:30:09;;;;;;;10.18;4.63;;;;;;;13.01;100.00;97784.09;5113589;28;20445;-80
2023/05/12 07:32:34;;;;;;;10.43;4.80;;;;;;;13.14;100.00;97791.34;5113568;28;20035;-80
2023/05/12 07:35:00;;;;;;;9.85;4.90;;;;;;;13.17;100.00;97805.41;5114978;28;20028;-81
2023/05/12 07:37:25;;;;;;;10.82;5.53;;;;;;;13.30;100.00;97810.81;5114954;28;20042;-80
2023/05/12 07:39:51;;;;;;;10.85;5.60;;;;;;;13.30;100.00;97817.06;5113391;28;20012;-81
2023/05/12 07:42:16;;;;;;;8.60;4.72;;;;;;;13.19;100.00;97792.78;5096343;28;20368;-80
2023/05/12 07:44:42;;;;;;;14.35;5.63;;;;;;;13.37;100.00;97796.88;5096187;28;20027;-80
2023/05/12 07:47:08;;;;;;;12.75;5.22;;;;;;;13.30;100.00;97798.25;5113272;28;20119;-80
2023/05/12 07:49:33;;;;;;;8.98;4.90;;;;;;;13.35;100.00;97812.22;5113689;28;20051;-80
2023/05/12 07:51:59;;;;;;;12.48;5.25;;;;;;;13.26;100.00;97803.97;5096843;28;20069;-80
2023/05/12 07:54:25;;;;;;;16.48;5.38;;;;;;;13.29;100.00;97815.31;5095885;28;20030;-80
2023/05/12 07:56:50;;;;;;;13.20;4.82;;;;;;;13.43;100.00;97811.72;5113245;28;20032;-79
2023/05/12 07:59:16;;;;;;;12.52;4.78;;;;;;;13.29;100.00;97804.59;5114827;28;20049;-80
2023/05/12 08:01:41;;;;;;;11.45;4.88;;;;;;;13.21;100.00;97809.63;5096279;28;20411;-79
2023/05/12 08:04:07;;;;;;;21.40;5.53;;;;;;;13.32;100.00;97806.22;5096446;28;20377;-80
2023/05/12 08:06:33;;;;;;;5.53;3.60;;;;;;;13.35;100.00;97803.31;5096069;28;20395;-80
2023/05/12 08:08:59;;;;;;;9.07;3.80;;;;;;;13.41;100.00;97809.09;5096616;28;20024;-82
2023/05/12 08:11:24;;;;;;;6.35;3.83;;;;;;;13.43;100.00;97807.19;5113625;28;20129;-81
2023/05/12 08:13:50;;;;;;;15.75;4.70;;;;;;;13.52;100.00;97811.94;5096227;28;20026;-80
2023/05/12 08:16:16;;;;;;;10.38;4.43;;;;;;;13.78;100.00;97807.41;5097293;28;20031;-82
2023/05/12 08:18:41;;;;;;;4.72;3.55;;;;;;;13.87;100.00;97805.91;5098929;28;20038;-81
2023/05/12 08:21:07;;;;;;;12.13;4.20;;;;;;;13.88;100.00;97808.47;5118539;28;20036;-81
2023/05/12 08:23:33;;;;;;;10.93;4.03;;;;;;;14.01;100.00;97803.09;5112068;28;20031;-80
2023/05/12 08:25:58;;;;;;;6.65;3.78;;;;;;;14.00;100.00;97804.03;5113540;28;20058;-81
2023/05/12 08:28:24;;;;;;;8.00;3.97;;;;;;;14.30;100.00;97815.31;5096353;28;20486;-81
2023/05/12 08:30:49;;;;;;;11.05;4.00;;;;;;;14.64;100.00;97814.56;5113065;28;20023;-79
2023/05/12 08:33:15;;;;;;;17.98;5.78;;;;;;;14.69;100.00;97808.84;5112275;28;20036;-80
2023/05/12 08:35:40;;;;;;;10.30;5.40;;;;;;;14.83;100.00;97807.81;5095147;28;20106;-80
2023/05/12 08:38:06;;;;;;;10.93;4.93;;;;;;;14.91;100.00;97805.41;5112347;28;20114;-79
2023/05/12 08:40:37;;;;;;;11.95;4.50;;;;;;;15.04;100.00;97798.13;5111797;28;20483;-80
2023/05/12 08:43:17;;;;;;;6.50;3.97;;;;;;;15.36;100.00;97791.13;5112440;28;20465;-80
2023/05/12 08:45:43;;;;;;;7.95;4.60;;;;;;;15.68;100.00;97792.22;5113565;28;20065;-80
2023/05/12 08:48:09;;;;;;;9.05;4.43;;;;;;;15.34;100.00;97786.84;5095263;28;20027;-80
2023/05/12 08:50:35;;;;;;;21.25;4.88;;;;;;;15.43;100.00;97799.59;5094964;28;20027;-80
2023/05/12 08:53:03;;;;;;;8.90;4.32;;;;;;;15.50;100.00;97792.81;5111926;28;20022;-79
2023/05/12 08:55:28;;;;;;;12.50;6.28;;;;;;;15.75;100.00;97802.53;5111901;28;20035;-81
2023/05/12 08:57:55;;;;;;;17.02;5.35;;;;;;;15.67;100.00;97790.50;5112379;28;20019;-80
2023/05/12 09:00:24;;;;;;;11.50;5.75;;;;;;;15.14;100.00;97797.31;5111996;28;20344;-80
2023/05/12 09:02:50;;;;;;;9.07;4.78;;;;;;;15.35;100.00;97791.25;5074710;28;20028;-80
2023/05/12 09:05:16;;;;;;;7.63;4.47;;;;;;;15.60;100.00;97794.66;5107561;28;20038;-80
2023/05/12 09:07:43;;;;;;;6.78;3.92;;;;;;;16.00;100.00;97791.50;5094720;28;20027;-81
2023/05/12 09:10:14;;;;;;;11.38;5.10;;;;;;;15.91;100.00;97787.69;5112945;28;20024;-80
2023/05/12 09:12:41;;;;;;;8.30;5.35;;;;;;;15.61;100.00;97768.53;5111329;28;20024;-80
2023/05/12 09:15:07;;;;;;;9.45;6.15;;;;;;;15.95;100.00;97786.47;5094626;28;20460;-81
2023/05/12 09:17:34;;;;;;;8.70;5.05;;;;;;;16.45;100.00;97785.09;5094443;28;20078;-80
2023/05/12 09:20:00;;;;;;;12.90;5.68;;;;;;;16.87;100.00;97775.31;5112307;28;20111;-81
2023/05/12 09:22:33;;;;;;;9.32;5.20;;;;;;;16.94;97.71;97762.16;5111264;28;20034;-80
2023/05/12 09:24:59;;;;;;;8.95;5.68;;;;;;;16.43;100.00;97760.03;5103854;28;20062;-80
2023/05/12 09:27:26;;;;;;;10.10;6.53;;;;;;;16.55;100.00;97755.53;5111313;28;20479;-80
2023/05/12 09:29:51;;;;;;;13.85;6.25;;;;;;;16.45;100.00;97766.19;5110979;28;20031;-80
2023/05/12 09:32:17;;;;;;;9.57;6.28;;;;;;;16.60;99.79;97758.69;5112668;28;20636;-80
2023/05/12 09:34:43;;;;;;;14.90;5.50;;;;;;;15.96;100.00;97754.97;5111245;28;20027;-80
2023/05/12 09:37:08;;;;;;;10.20;5.57;;;;;;;16.67;100.00;97766.16;5094311;28;20020;-80
2023/05/12 09:39:35;;;;;;;10.82;6.55;;;;;;;16.74;100.00;97767.38;5110632;28;20037;-80
2023/05/12 09:42:01;;;;;;;8.77;6.10;;;;;;;16.92;99.99;97753.31;5093876;28;20055;-80
2023/05/12 09:44:28;;;;;;;7.95;5.22;;;;;;;17.01;97.42;97747.97;5111882;28;20604;-80
2023/05/12 09:46:54;;;;;;;11.50;6.00;;;;;;;17.58;98.02;97762.94;5111888;28;20026;-80
2023/05/12 09:49:21;;;;;;;10.63;5.40;;;;;;;17.77;95.64;97754.94;5111048;28;20499;-80
2023/05/12 09:51:51;;;;;;;13.93;7.18;;;;;;;17.48;90.16;97741.19;5111150;28;20055;-80
2023/05/12 09:54:30;;;;;;;9.65;4.80;;;;;;;17.39;92.35;97747.41;5111160;28;20376;-81
2023/05/12 09:57:05;;;;;;;15.32;4.70;;;;;;;17.42;94.07;97747.13;5093473;28;20490;-79
2023/05/12 09:59:32;;;;;;;11.43;6.18;;;;;;;16.92;95.49;97750.63;5111107;28;20084;-79
2023/05/12 10:01:59;;;;;;;9.85;4.20;;;;;;;17.00;97.99;97750.81;5110515;28;20035;-81
2023/05/12 10:04:26;;;;;;;8.88;4.68;;;;;;;17.45;92.81;97746.88;5093747;28;20031;-82
2023/05/12 10:06:53;;;;;;;6.18;4.18;;;;;;;17.08;92.70;97738.38;5093637;28;20472;-81
2023/05/12 10:09:22;;;;;;;7.07;4.00;;;;;;;17.63;92.65;97761.53;5112084;28;20502;-80
2023/05/12 10:11:50;;;;;;;14.68;3.95;;;;;;;17.06;89.32;97726.84;5110875;28;20027;-81
2023/05/12 10:14:16;;;;;;;5.55;3.75;;;;;;;16.12;97.70;97728.44;5093572;28;20036;-80
2023/05/12 10:16:48;;;;;;;41.45;24.67;;;;;;;15.98;96.38;97729.56;5091282;28;20529;-79
2023/05/12 10:19:21;;;;;;;14.87;6.20;;;;;;;15.69;100.00;97744.50;5093981;28;20457;-80
2023/05/12 10:21:47;;;;;;;6.30;4.10;;;;;;;15.57;100.00;97748.19;5110796;28;20269;-79
2023/05/12 10:24:16;;;;;;;13.27;4.72;;;;;;;15.97;100.00;97767.44;5110274;28;20030;-81
2023/05/12 10:26:46;;;;;;;8.48;4.13;;;;;;;16.37;100.00;97751.59;5110877;28;20542;-81
2023/05/12 10:29:12;;;;;;;21.05;4.75;;;;;;;16.60;100.00;97758.69;5110871;28;20431;-80
2023/05/12 10:31:38;;;;;;;13.50;4.13;;;;;;;16.60;95.97;97743.34;5093289;28;20055;-80
2023/05/12 10:34:04;;;;;;;12.00;5.10;;;;;;;16.66;96.91;97745.53;5110644;28;20020;-80
2023/05/12 10:36:30;;;;;;;9.55;5.15;;;;;;;16.73;96.08;97733.22;5093932;28;20058;-80
2023/05/12 10:39:04;;;;;;;17.02;6.18;;;;;;;16.87;98.26;97751.00;5110166;28;20055;-81
2023/05/12 10:41:31;;;;;;;22.15;8.13;;;;;;;16.91;95.59;97738.09;5110544;28;20023;-81
2023/05/12 10:43:57;;;;;;;20.23;6.47;;;;;;;17.18;95.62;97749.25;5110300;28;20035;-81
2023/05/12 10:46:25;;;;;;;8.73;4.82;;;;;;;17.28;94.45;97744.78;5113188;28;20344;-81
2023/05/12 10:49:05;;;;;;;10.40;4.50;;;;;;;17.33;92.97;97737.97;5097736;28;20111;-80
2023/05/12 10:51:53;;;;;;;5.72;4.43;;;;;;;17.47;90.87;97733.25;5089047;28;20031;-81
2023/05/12 10:54:24;;;;;;;9.13;3.90;;;;;;;17.30;91.11;97731.97;5113162;28;20472;-82
2023/05/12 10:56:50;;;;;;;8.02;3.67;;;;;;;17.49;89.90;97725.84;5114228;28;20035;-80
2023/05/12 10:59:27;;;;;;;5.10;3.90;;;;;;;17.46;89.78;97726.09;5112579;28;20118;-81
2023/05/12 11:02:02;;;;;;;10.00;4.63;;;;;;;17.33;90.98;97726.31;5114070;28;20395;-81
2023/05/12 11:04:57;;;;;;;13.93;7.10;;;;;;;17.22;90.06;97719.13;5114951;28;20038;-81
2023/05/12 11:07:27;;;;;;;10.70;4.78;;;;;;;17.58;90.25;97730.47;5096511;28;20034;-81
2023/05/12 11:09:54;;;;;;;6.57;4.15;;;;;;;17.38;90.46;97737.56;5096519;28;20108;-81
2023/05/12 11:12:45;;;;;;;12.38;4.95;;;;;;;17.34;91.07;97711.81;5113453;28;20015;-82
2023/05/12 11:15:13;;;;;;;14.35;4.85;;;;;;;17.66;88.84;97720.69;5102571;28;20392;-81
2023/05/12 11:17:39;;;;;;;8.10;4.47;;;;;;;17.57;88.49;97720.63;5113957;28;20452;-81
2023/05/12 11:20:06;;;;;;;8.50;4.75;;;;;;;17.71;88.83;97732.00;5096364;28;20479;-82
2023/05/12 11:22:32;;;;;;;6.90;4.38;;;;;;;17.91;87.82;97722.09;5113249;28;20088;-82